Denby Dale, United Kingdom
Current Conditions -  °F | °C
As of 8:50 AM on Wednesday 26 Nov 2014 (Local Time) from EGNM Reporting Station
Light Rain Light Rain  
Wind Chill: 38°   Ceiling: 500
Heat Index: 41°   Visibility: 0.81mi
Dew Point: 41°   Wind: 5mph
Humidity: 100%   Direction: 60°ENE
Pressure: 29.94"   Gusts: NA
Location:  53.57°N, 1.66°W
Report Text: EGNM 260850Z 06004KT 030V100 1300 R32/P1500 -RADZ BR SCT002 BKN005 05/05 Q1014
Loading
Personal Weather Stations






























Interactive Weather Map New forecast layout! Learn more

10-Day Weather Forecast

Advertisements
Track Severe Weather on mobile